Time;durP1;ratioP1;P1;durP2;ratioP2;P2;SDS_P1;SDS_P2;PMS_P1;PMS_P2;Temp;Humidity;BMP_temperature;BMP_pressure;BME280_temperature;BME280_humidity;BME280_pressure;Samples;Min_cycle;Max_cycle;Signal;HPM_P1;HPM_P2
2021/04/19 04:56:14;;;;;;;7.40;6.10;;;;;;;10.79;67.72;100375.48;1843452;77;22643;-65
2021/04/19 04:58:43;;;;;;;5.80;5.20;;;;;;;10.94;66.85;100373.83;1811829;77;21282;-63
2021/04/19 05:01:11;;;;;;;5.85;5.35;;;;;;;11.11;66.46;100375.10;1809552;79;21124;-69
2021/04/19 05:03:41;;;;;;;6.03;5.42;;;;;;;11.31;66.36;100374.02;1771549;81;21561;-62
2021/04/19 05:06:11;;;;;;;5.37;4.87;;;;;;;11.52;65.47;100370.73;1735102;82;21064;-66
2021/04/19 05:08:40;;;;;;;5.62;4.85;;;;;;;11.75;64.53;100366.37;1737696;82;21075;-61
2021/04/19 05:11:14;;;;;;;5.92;5.30;;;;;;;11.97;63.71;100367.37;1728561;82;21632;-75
2021/04/19 05:13:40;;;;;;;5.00;4.60;;;;;;;12.20;62.71;100366.04;1726984;81;21223;-68
2021/04/19 05:16:09;;;;;;;6.87;4.75;;;;;;;12.36;62.48;100364.23;1740391;81;21630;-66
2021/04/19 05:18:38;;;;;;;4.95;4.58;;;;;;;12.54;61.47;100354.00;1738464;81;21104;-63
2021/04/19 05:21:08;;;;;;;5.83;5.08;;;;;;;12.71;60.94;100356.92;1741180;81;21550;-70
2021/04/19 05:23:38;;;;;;;5.42;4.92;;;;;;;12.85;60.67;100365.22;1744278;81;21564;-68
2021/04/19 05:26:07;;;;;;;5.65;5.15;;;;;;;13.00;59.28;100357.77;1741270;81;21397;-67
2021/04/19 05:28:41;;;;;;;5.85;5.35;;;;;;;13.06;59.15;100361.79;1741907;81;20989;-67
2021/04/19 05:31:12;;;;;;;5.72;5.10;;;;;;;13.10;59.34;100357.59;1743915;81;20899;-64
2021/04/19 05:33:41;;;;;;;6.75;6.08;;;;;;;13.22;58.76;100359.45;1746054;81;21566;-65
2021/04/19 05:36:11;;;;;;;6.37;5.72;;;;;;;13.29;58.70;100365.99;1747618;81;21662;-63
2021/04/19 05:38:42;;;;;;;5.28;4.78;;;;;;;13.39;57.91;100364.12;1744618;81;21193;-74
2021/04/19 05:41:13;;;;;;;7.70;5.10;;;;;;;13.40;57.60;100358.80;1746571;81;20918;-63
2021/04/19 05:43:43;;;;;;;5.85;4.60;;;;;;;13.44;57.79;100360.75;1743615;81;21025;-62
2021/04/19 05:46:15;;;;;;;6.92;4.80;;;;;;;13.54;57.47;100360.55;1740541;81;20990;-60
2021/04/19 05:48:44;;;;;;;7.12;5.10;;;;;;;13.67;57.24;100361.43;1743084;81;21053;-63
2021/04/19 05:51:34;;;;;;;5.78;5.28;;;;;;;13.78;57.09;100359.45;1746254;81;21272;-64
2021/04/19 05:54:03;;;;;;;5.50;5.00;;;;;;;13.94;57.00;100367.53;1750392;81;21005;-64
2021/04/19 05:56:42;;;;;;;5.37;4.87;;;;;;;13.99;56.34;100364.12;1748215;81;21477;-66
2021/04/19 05:59:55;;;;;;;5.12;4.62;;;;;;;13.90;55.97;100368.66;1760093;81;21019;-62
2021/04/19 06:02:37;;;;;;;5.70;5.10;;;;;;;13.69;56.11;100368.25;1732409;81;21036;-63
2021/04/19 06:05:08;;;;;;;5.33;4.83;;;;;;;13.51;57.57;100368.12;1740475;81;22452;-65
2021/04/19 06:07:42;;;;;;;4.95;4.55;;;;;;;13.59;57.69;100364.56;1740997;81;21719;-62
2021/04/19 06:10:48;;;;;;;5.53;4.60;;;;;;;13.71;57.40;100362.92;1690418;84;21614;-62
2021/04/19 06:13:26;;;;;;;5.28;4.83;;;;;;;13.97;56.55;100361.26;1855082;75;27798;-61
2021/04/19 06:15:55;;;;;;;4.60;4.30;;;;;;;14.13;56.33;100359.30;1785555;78;21607;-63
2021/04/19 06:18:25;;;;;;;4.92;4.53;;;;;;;14.37;54.29;100354.23;1841903;77;21779;-63
2021/04/19 06:20:56;;;;;;;5.22;4.35;;;;;;;14.52;52.79;100368.94;1838714;77;21590;-64
2021/04/19 06:23:24;;;;;;;5.05;4.50;;;;;;;14.38;53.78;100370.80;1841623;77;21033;-73
2021/04/19 06:25:53;;;;;;;4.85;4.45;;;;;;;14.31;53.91;100366.42;1839237;77;21554;-61
2021/04/19 06:28:24;;;;;;;5.30;4.85;;;;;;;14.31;53.61;100370.36;1855164;77;21032;-62
2021/04/19 06:30:55;;;;;;;4.75;4.35;;;;;;;14.29;53.84;100365.69;1830219;77;21373;-63
2021/04/19 06:33:24;;;;;;;4.90;4.50;;;;;;;14.27;54.52;100367.56;1832882;77;21507;-63
2021/04/19 06:35:53;;;;;;;4.10;3.80;;;;;;;14.29;53.51;100367.00;1828548;77;21442;-62
2021/04/19 06:38:24;;;;;;;4.37;3.98;;;;;;;14.16;53.60;100370.05;1831340;77;21526;-60
2021/04/19 06:40:54;;;;;;;4.50;4.10;;;;;;;14.01;53.39;100374.02;1837840;77;20926;-65
2021/04/19 06:43:22;;;;;;;4.55;4.25;;;;;;;13.84;53.98;100376.91;1775912;80;21337;-62
2021/04/19 06:45:51;;;;;;;4.15;3.85;;;;;;;13.67;54.93;100374.52;1790527;80;20969;-64
2021/04/19 06:48:20;;;;;;;4.95;4.55;;;;;;;13.60;55.07;100371.44;1792617;78;21615;-61
2021/04/19 06:50:49;;;;;;;4.30;4.00;;;;;;;13.66;55.35;100370.22;1793225;79;21752;-62
2021/04/19 06:53:17;;;;;;;4.22;3.83;;;;;;;13.79;54.72;100367.67;1767833;79;21614;-63
2021/04/19 06:55:46;;;;;;;4.28;3.98;;;;;;;13.91;54.66;100357.25;1778017;79;22100;-68
2021/04/19 06:58:16;;;;;;;4.83;4.10;;;;;;;14.16;54.12;100367.42;1743387;81;21051;-62
2021/04/19 07:00:45;;;;;;;4.37;3.98;;;;;;;14.26;53.93;100368.51;1749739;79;21646;-65
2021/04/19 07:03:13;;;;;;;4.83;4.30;;;;;;;14.37;52.38;100363.41;1775020;80;21506;-64
2021/04/19 07:05:43;;;;;;;4.30;3.90;;;;;;;14.38;51.81;100366.86;1813340;79;20923;-63
2021/04/19 07:08:36;;;;;;;4.58;4.20;;;;;;;14.33;52.08;100364.08;1773612;79;22104;-66
2021/04/19 07:11:06;;;;;;;4.87;4.50;;;;;;;14.40;51.52;100361.86;1765648;80;21499;-63
2021/04/19 07:13:37;;;;;;;4.45;4.05;;;;;;;14.26;52.20;100362.80;1774099;79;20936;-72
2021/04/19 07:16:06;;;;;;;4.15;3.85;;;;;;;14.19;52.59;100364.14;1786761;79;21503;-64
2021/04/19 07:18:36;;;;;;;4.75;4.00;;;;;;;14.15;53.48;100364.44;1790476;79;20965;-64
2021/04/19 07:21:08;;;;;;;4.17;3.87;;;;;;;14.30;53.08;100368.67;1788960;79;21367;-66
2021/04/19 07:23:37;;;;;;;5.03;4.53;;;;;;;14.42;53.47;100365.72;1780345;80;21006;-64
2021/04/19 07:26:06;;;;;;;4.12;3.83;;;;;;;14.50;52.89;100372.60;1766082;80;21068;-65
2021/04/19 07:28:38;;;;;;;4.22;3.92;;;;;;;14.50;52.49;100368.20;1826718;77;21491;-65
2021/04/19 07:31:14;;;;;;;4.25;3.85;;;;;;;14.41;52.17;100361.39;1822421;77;21573;-63
2021/04/19 07:33:39;;;;;;;4.75;4.35;;;;;;;14.32;52.81;100364.17;1814247;77;22184;-69
2021/04/19 07:36:29;;;;;;;4.72;4.22;;;;;;;14.28;52.56;100370.09;1822584;77;21052;-65
2021/04/19 07:39:00;;;;;;;5.00;4.50;;;;;;;14.28;53.05;100378.41;1832914;77;21124;-64
2021/04/19 07:41:45;;;;;;;4.92;4.25;;;;;;;14.30;53.23;100368.20;1825314;77;21649;-67
2021/04/19 07:44:45;;;;;;;5.05;4.53;;;;;;;14.41;52.54;100366.19;1827027;77;21033;-67
2021/04/19 07:47:43;;;;;;;4.20;3.90;;;;;;;14.39;52.40;100361.99;1829004;77;22094;-65
2021/04/19 07:50:22;;;;;;;4.20;3.90;;;;;;;14.12;53.24;100364.16;1828038;77;21542;-63
2021/04/19 07:52:59;;;;;;;3.83;3.52;;;;;;;13.99;54.02;100365.92;1830111;77;21548;-64
2021/04/19 07:55:30;;;;;;;5.78;4.05;;;;;;;13.81;53.20;100371.87;1826606;77;21074;-65
2021/04/19 07:58:02;;;;;;;4.53;4.17;;;;;;;13.60;54.49;100370.60;1824246;77;21464;-67
2021/04/19 08:00:37;;;;;;;4.65;4.25;;;;;;;13.58;54.85;100372.04;1826175;77;21264;-74
2021/04/19 08:03:13;;;;;;;4.45;4.05;;;;;;;13.62;54.51;100372.19;1828762;77;20941;-75
2021/04/19 08:05:51;;;;;;;4.30;3.95;;;;;;;13.72;54.63;100368.99;1822393;77;20958;-64
2021/04/19 08:08:36;;;;;;;4.85;4.40;;;;;;;13.78;55.09;100377.30;1820237;77;20997;-62
2021/04/19 08:11:10;;;;;;;5.05;4.28;;;;;;;13.89;54.84;100373.53;1822446;77;21048;-63
2021/04/19 08:13:38;;;;;;;4.47;4.08;;;;;;;14.04;54.45;100376.91;1820068;78;21198;-64
2021/04/19 08:16:20;;;;;;;4.50;4.10;;;;;;;13.94;53.68;100372.77;1818252;78;21005;-65
2021/04/19 08:18:50;;;;;;;4.47;4.08;;;;;;;13.74;53.55;100368.42;1809344;78;21441;-64
2021/04/19 08:21:27;;;;;;;5.37;4.25;;;;;;;13.52;54.46;100371.58;1810267;78;21033;-66
2021/04/19 08:23:55;;;;;;;5.20;4.25;;;;;;;13.37;54.91;100364.68;1815735;78;20942;-69
2021/04/19 08:26:24;;;;;;;4.28;3.87;;;;;;;13.31;55.19;100361.51;1819133;78;22009;-63
2021/04/19 08:28:52;;;;;;;4.80;4.40;;;;;;;13.33;54.97;100367.48;1808569;78;20935;-64
2021/04/19 08:31:20;;;;;;;4.60;4.22;;;;;;;13.24;55.52;100361.52;1803554;78;21653;-66
2021/04/19 08:33:49;;;;;;;4.78;4.28;;;;;;;13.16;56.21;100366.40;1815592;78;21852;-63
2021/04/19 08:36:19;;;;;;;5.20;4.80;;;;;;;13.07;56.26;100366.08;1810470;78;21002;-64
2021/04/19 08:38:48;;;;;;;6.95;5.70;;;;;;;13.06;57.14;100360.48;1815573;78;21188;-62
2021/04/19 08:41:17;;;;;;;5.35;4.95;;;;;;;13.08;57.88;100359.45;1812854;78;20997;-66
2021/04/19 08:43:47;;;;;;;5.58;5.08;;;;;;;13.02;57.45;100360.66;1737793;82;20994;-66
2021/04/19 08:46:15;;;;;;;5.40;4.97;;;;;;;12.91;57.22;100360.94;1733363;81;21019;-63
2021/04/19 08:48:44;;;;;;;6.42;5.83;;;;;;;12.87;57.95;100356.83;1751698;81;21606;-64
2021/04/19 08:51:13;;;;;;;5.83;5.20;;;;;;;12.87;57.96;100353.74;1753166;79;22096;-65
2021/04/19 08:53:41;;;;;;;5.60;5.15;;;;;;;12.82;58.18;100359.71;1753853;81;21544;-64
2021/04/19 08:56:12;;;;;;;5.95;5.42;;;;;;;12.80;58.63;100356.81;1749400;81;21010;-66
2021/04/19 08:58:43;;;;;;;5.50;5.10;;;;;;;12.81;57.91;100345.43;1754120;81;21093;-69
2021/04/19 09:01:13;;;;;;;6.17;5.58;;;;;;;12.78;57.93;100349.56;1748122;81;21575;-63
2021/04/19 09:03:42;;;;;;;7.45;6.75;;;;;;;12.73;58.92;100349.00;1762721;80;21139;-63
2021/04/19 09:06:17;;;;;;;6.70;6.08;;;;;;;12.70;58.43;100367.00;1752454;81;20966;-66
2021/04/19 09:08:47;;;;;;;7.63;6.43;;;;;;;12.55;58.55;100357.45;1755116;81;20960;-67
2021/04/19 09:11:27;;;;;;;6.53;5.92;;;;;;;12.45;59.51;100350.61;1750322;81;21501;-65
2021/04/19 09:14:10;;;;;;;7.78;6.42;;;;;;;12.51;60.10;100346.34;1733920;81;20938;-62
2021/04/19 09:16:39;;;;;;;6.42;5.87;;;;;;;12.55;59.49;100348.31;1766673;81;21197;-72
2021/04/19 09:19:07;;;;;;;6.70;6.12;;;;;;;12.46;59.19;100348.38;1758072;80;21045;-74
2021/04/19 09:21:47;;;;;;;6.75;6.15;;;;;;;12.40;59.75;100350.50;1757989;81;20954;-68
2021/04/19 09:24:17;;;;;;;7.15;6.50;;;;;;;12.43;60.21;100351.63;1765347;81;21518;-64
2021/04/19 09:27:01;;;;;;;6.90;6.30;;;;;;;12.41;59.58;100345.66;1762035;81;21384;-61
2021/04/19 09:29:41;;;;;;;7.12;6.45;;;;;;;12.29;60.35;100344.16;1769794;80;22283;-65
2021/04/19 09:32:20;;;;;;;6.40;5.87;;;;;;;12.20;60.90;100344.69;1754100;81;21622;-69
2021/04/19 09:34:54;;;;;;;6.50;5.72;;;;;;;12.12;60.98;100352.58;1757793;81;20997;-62
2021/04/19 09:37:39;;;;;;;6.45;5.83;;;;;;;12.11;60.26;100350.90;1744378;81;21484;-65
2021/04/19 09:40:21;;;;;;;6.55;5.95;;;;;;;12.06;60.12;100347.70;1743684;81;21037;-63
2021/04/19 09:43:04;;;;;;;7.60;6.20;;;;;;;12.03;60.62;100351.33;1712067;81;21218;-64
2021/04/19 09:45:49;;;;;;;6.33;5.72;;;;;;;12.07;61.68;100348.08;1757804;81;21132;-61
2021/04/19 09:48:34;;;;;;;6.67;6.00;;;;;;;12.22;60.63;100344.14;1753646;80;21040;-62
2021/04/19 09:51:23;;;;;;;7.00;5.95;;;;;;;12.29;60.15;100344.63;1805567;78;21609;-72
2021/04/19 09:54:03;;;;;;;5.80;5.30;;;;;;;12.33;60.56;100345.67;1808113;78;21606;-66
2021/04/19 09:56:39;;;;;;;6.67;6.08;;;;;;;12.39;60.47;100337.11;1804861;78;21127;-62
2021/04/19 09:59:16;;;;;;;5.97;5.47;;;;;;;12.46;60.21;100337.93;1763395;80;21085;-65
2021/04/19 10:01:53;;;;;;;6.03;5.53;;;;;;;12.40;59.19;100341.37;1770846;80;21421;-70
2021/04/19 10:04:24;;;;;;;6.28;5.50;;;;;;;12.25;58.95;100342.66;1762984;80;21520;-61
2021/04/19 10:07:01;;;;;;;5.80;5.30;;;;;;;12.14;58.53;100344.20;1741261;81;21667;-67
2021/04/19 10:09:30;;;;;;;5.75;5.30;;;;;;;12.02;58.96;100340.05;1752796;81;21369;-71
2021/04/19 10:12:01;;;;;;;6.53;5.65;;;;;;;11.97;60.68;100343.88;1744030;81;21585;-70
2021/04/19 10:14:38;;;;;;;5.85;5.35;;;;;;;12.00;59.57;100339.30;1784402;79;21002;-71
2021/04/19 10:17:17;;;;;;;5.90;5.40;;;;;;;12.10;59.79;100347.91;1743287;81;21679;-67
2021/04/19 10:19:48;;;;;;;7.12;5.90;;;;;;;12.22;59.42;100344.61;1760836;81;21690;-65
2021/04/19 10:22:17;;;;;;;6.20;5.70;;;;;;;12.22;59.07;100344.61;1755131;81;21953;-69
2021/04/19 10:24:52;;;;;;;6.30;5.70;;;;;;;12.11;59.20;100332.16;1779576;79;21517;-69
2021/04/19 10:27:26;;;;;;;6.85;5.78;;;;;;;12.08;59.59;100333.64;1741398;80;21548;-70
2021/04/19 10:30:14;;;;;;;6.95;6.25;;;;;;;12.13;60.18;100331.61;1769163;80;20928;-66
2021/04/19 10:32:46;;;;;;;6.25;5.65;;;;;;;12.23;60.48;100324.94;1764187;80;20947;-65
2021/04/19 10:35:34;;;;;;;5.62;5.12;;;;;;;12.37;59.52;100320.22;1772560;79;21534;-65
2021/04/19 10:38:05;;;;;;;5.62;5.15;;;;;;;12.42;59.35;100323.38;1759671;80;21497;-70
2021/04/19 10:40:34;;;;;;;6.55;5.30;;;;;;;12.48;58.53;100316.48;1759082;80;20945;-69
2021/04/19 10:43:11;;;;;;;6.30;5.80;;;;;;;12.50;58.61;100321.16;1770403;80;21487;-70
2021/04/19 10:45:42;;;;;;;6.40;5.83;;;;;;;12.56;57.73;100322.56;1775584;80;21598;-60
2021/04/19 10:48:22;;;;;;;7.10;6.17;;;;;;;12.53;58.33;100317.52;1775896;80;21008;-62
2021/04/19 10:50:53;;;;;;;8.25;6.28;;;;;;;12.49;58.49;100310.80;1770674;80;21664;-59
2021/04/19 10:53:38;;;;;;;7.97;7.28;;;;;;;12.53;58.65;100313.13;1759921;80;21040;-61
2021/04/19 10:56:09;;;;;;;6.45;5.95;;;;;;;12.58;58.40;100316.31;1764973;80;21032;-61
2021/04/19 10:58:38;;;;;;;6.80;6.08;;;;;;;12.65;57.65;100317.63;1802082;79;21025;-66
2021/04/19 11:01:08;;;;;;;7.75;6.22;;;;;;;12.72;56.92;100313.34;1756635;81;21466;-65
2021/04/19 11:03:37;;;;;;;7.92;7.08;;;;;;;12.72;57.52;100312.88;1763108;81;21693;-67
2021/04/19 11:06:10;;;;;;;7.03;6.17;;;;;;;12.71;57.99;100316.42;1782778;79;20982;-65
2021/04/19 11:08:58;;;;;;;9.23;6.97;;;;;;;12.72;58.11;100314.66;1799023;79;21571;-71
2021/04/19 11:11:40;;;;;;;8.18;6.05;;;;;;;12.75;58.82;100310.55;1738151;81;21205;-67
2021/04/19 11:14:22;;;;;;;16.45;11.38;;;;;;;12.79;57.73;100313.36;1779335;79;22314;-67
2021/04/19 11:17:07;;;;;;;12.82;9.25;;;;;;;12.74;56.31;100319.32;1744059;79;22475;-70
2021/04/19 11:19:46;;;;;;;13.53;10.00;;;;;;;12.66;56.36;100314.55;1775706;79;21547;-61
2021/04/19 11:22:33;;;;;;;19.05;10.25;;;;;;;12.59;56.59;100319.30;1777118;79;20931;-62
2021/04/19 11:25:23;;;;;;;9.90;7.60;;;;;;;12.57;56.59;100316.41;1779166;79;21630;-68
2021/04/19 11:27:54;;;;;;;6.67;5.83;;;;;;;12.56;52.39;100319.48;1750566;80;22100;-67
2021/04/19 11:30:26;;;;;;;5.95;5.35;;;;;;;12.60;52.78;100317.53;1773423;80;21011;-68
2021/04/19 11:33:13;;;;;;;5.33;4.80;;;;;;;12.71;53.88;100310.36;1771729;79;21528;-67
2021/04/19 11:35:45;;;;;;;5.53;5.00;;;;;;;12.85;52.39;100315.10;1757056;80;22138;-68
2021/04/19 11:38:22;;;;;;;7.60;5.08;;;;;;;12.92;53.31;100315.11;1793327;79;20946;-63
2021/04/19 11:40:53;;;;;;;6.83;5.45;;;;;;;13.03;54.19;100315.29;1737352;81;21340;-65
2021/04/19 11:43:26;;;;;;;7.55;5.72;;;;;;;13.17;54.75;100307.10;1753999;81;21577;-67
2021/04/19 11:46:11;;;;;;;6.85;6.10;;;;;;;13.27;54.81;100311.63;1769235;80;21577;-72
2021/04/19 11:48:46;;;;;;;6.28;5.67;;;;;;;13.33;54.80;100315.17;1768008;80;21623;-71
2021/04/19 11:51:16;;;;;;;6.53;5.40;;;;;;;13.37;53.79;100302.75;1769929;80;20997;-66
2021/04/19 11:53:46;;;;;;;7.17;6.47;;;;;;;13.43;53.01;100304.14;1767324;80;22062;-67
2021/04/19 11:56:19;;;;;;;7.80;5.70;;;;;;;13.48;54.09;100309.45;1770247;80;20965;-71
2021/04/19 11:58:49;;;;;;;5.58;4.90;;;;;;;13.55;52.87;100296.82;1772429;79;20929;-63
2021/04/19 12:01:20;;;;;;;6.47;5.87;;;;;;;13.61;52.40;100290.70;1781088;79;21623;-65
2021/04/19 12:03:50;;;;;;;6.47;5.85;;;;;;;13.67;52.22;100291.61;1770664;80;21034;-72
2021/04/19 12:06:20;;;;;;;5.90;5.40;;;;;;;13.68;52.21;100283.30;1760229;80;22172;-64
2021/04/19 12:08:51;;;;;;;5.55;5.10;;;;;;;13.64;51.67;100285.27;1770060;79;20970;-64
2021/04/19 12:11:22;;;;;;;7.05;5.67;;;;;;;13.58;51.43;100283.08;1787541;79;21135;-68
2021/04/19 12:13:58;;;;;;;6.30;5.70;;;;;;;13.53;52.27;100290.38;1765652;79;21595;-67
2021/04/19 12:16:22;;;;;;;6.10;5.17;;;;;;;13.51;52.39;100291.41;1775994;79;21172;-68
2021/04/19 12:18:51;;;;;;;6.33;5.72;;;;;;;13.50;52.69;100288.42;1788113;79;21458;-68
2021/04/19 12:21:21;;;;;;;10.85;5.75;;;;;;;13.45;53.02;100286.10;1757404;79;21666;-65
2021/04/19 12:23:49;;;;;;;6.60;6.00;;;;;;;13.48;52.63;100281.98;1775267;79;21102;-68
2021/04/19 12:26:18;;;;;;;6.12;5.53;;;;;;;13.56;52.51;100275.80;1783629;79;21489;-61
2021/04/19 12:28:48;;;;;;;5.92;5.42;;;;;;;13.68;52.55;100272.83;1781646;79;21062;-68
2021/04/19 12:31:17;;;;;;;5.67;5.10;;;;;;;13.83;52.44;100276.23;1780248;79;22374;-67
2021/04/19 12:33:48;;;;;;;6.03;5.30;;;;;;;13.94;52.03;100271.98;1757124;80;21739;-63
2021/04/19 12:36:17;;;;;;;7.78;5.50;;;;;;;14.02;50.87;100259.19;1786577;79;21140;-65
2021/04/19 12:38:46;;;;;;;6.90;6.22;;;;;;;14.01;50.87;100264.52;1775728;79;21041;-69
2021/04/19 12:41:16;;;;;;;7.47;6.28;;;;;;;13.97;51.06;100267.84;1783682;79;21461;-69
2021/04/19 12:43:44;;;;;;;9.08;6.10;;;;;;;13.89;51.09;100266.20;1771550;79;22071;-65
2021/04/19 12:46:14;;;;;;;7.30;6.12;;;;;;;13.73;51.79;100268.61;1770516;80;20946;-64
2021/04/19 12:48:49;;;;;;;6.95;6.22;;;;;;;13.61;52.14;100269.77;1758227;81;21054;-70
2021/04/19 12:51:19;;;;;;;5.83;5.35;;;;;;;13.45;52.30;100267.79;1754357;79;21084;-72
2021/04/19 12:53:47;;;;;;;7.22;5.72;;;;;;;13.31;52.94;100267.36;1755982;80;21672;-68
2021/04/19 12:56:16;;;;;;;6.42;5.47;;;;;;;13.19;53.05;100267.31;1760481;80;22176;-66
2021/04/19 12:58:46;;;;;;;6.22;5.67;;;;;;;13.08;53.31;100266.64;1766679;80;21075;-67
2021/04/19 13:01:16;;;;;;;5.85;5.22;;;;;;;13.01;53.56;100263.57;1768955;80;21150;-70
2021/04/19 13:03:45;;;;;;;5.58;5.08;;;;;;;12.98;53.34;100253.77;1766638;80;21120;-75
2021/04/19 13:06:13;;;;;;;6.60;5.90;;;;;;;12.98;52.79;100251.16;1765952;80;21578;-64
2021/04/19 13:08:42;;;;;;;7.40;5.00;;;;;;;13.00;53.41;100251.91;1752314;81;21271;-66
2021/04/19 13:11:14;;;;;;;6.35;5.35;;;;;;;13.05;53.26;100250.31;1772517;80;21424;-65
2021/04/19 13:13:42;;;;;;;8.80;7.30;;;;;;;13.10;53.59;100250.86;1761133;80;21079;-71
2021/04/19 13:16:11;;;;;;;8.03;6.28;;;;;;;13.14;53.68;100244.04;1792414;78;21708;-67
2021/04/19 13:18:41;;;;;;;6.50;5.90;;;;;;;13.19;53.90;100249.85;1799058;78;21064;-66
2021/04/19 13:21:10;;;;;;;6.85;6.25;;;;;;;13.24;52.53;100241.69;1759268;80;22137;-69
2021/04/19 13:23:39;;;;;;;6.10;5.03;;;;;;;13.29;52.92;100240.93;1763698;80;21622;-62
2021/04/19 13:26:08;;;;;;;6.20;5.60;;;;;;;13.34;53.49;100234.47;1763315;80;21566;-69
2021/04/19 13:28:37;;;;;;;8.95;5.42;;;;;;;13.42;53.17;100233.14;1765175;80;21013;-63
2021/04/19 13:31:07;;;;;;;7.53;5.60;;;;;;;13.43;52.94;100234.34;1763236;80;21025;-69
2021/04/19 13:33:35;;;;;;;8.45;4.80;;;;;;;13.43;53.63;100237.44;1755849;80;21179;-69
2021/04/19 13:36:05;;;;;;;4.92;4.53;;;;;;;13.44;53.08;100233.88;1768013;80;21800;-65
2021/04/19 13:38:33;;;;;;;5.25;4.75;;;;;;;13.44;52.23;100237.34;1762861;79;22080;-64
2021/04/19 13:41:04;;;;;;;5.80;4.75;;;;;;;13.38;52.52;100232.97;1762236;80;21189;-72
2021/04/19 13:43:32;;;;;;;5.00;4.53;;;;;;;13.35;52.29;100234.84;1759190;80;21599;-68
2021/04/19 13:46:01;;;;;;;5.40;4.90;;;;;;;13.37;52.00;100228.20;1770097;80;22877;-70
2021/04/19 13:48:29;;;;;;;6.20;5.37;;;;;;;13.39;51.19;100234.64;1768292;80;21610;-68
2021/04/19 13:50:58;;;;;;;5.67;5.15;;;;;;;13.37;50.66;100233.91;1748927;81;21664;-63
2021/04/19 13:53:26;;;;;;;5.83;4.75;;;;;;;13.31;50.75;100232.05;1757392;81;22364;-70
2021/04/19 13:55:55;;;;;;;4.92;4.42;;;;;;;13.25;51.37;100235.52;1748958;81;21499;-67
2021/04/19 13:58:23;;;;;;;4.80;4.40;;;;;;;13.24;51.18;100231.23;1776895;80;22148;-62
2021/04/19 14:00:52;;;;;;;5.83;4.37;;;;;;;13.22;51.12;100230.02;1776045;80;21035;-62
2021/04/19 14:03:20;;;;;;;5.42;4.45;;;;;;;13.25;51.60;100227.20;1749815;80;21649;-62
2021/04/19 14:05:49;;;;;;;4.85;4.45;;;;;;;13.29;51.25;100222.16;1755869;80;21677;-61
2021/04/19 14:08:18;;;;;;;4.12;3.80;;;;;;;13.30;50.97;100222.52;1776618;80;21579;-66
2021/04/19 14:10:46;;;;;;;3.80;3.52;;;;;;;13.30;51.30;100230.37;1765534;81;22190;-69
2021/04/19 14:13:15;;;;;;;4.42;4.03;;;;;;;13.31;51.38;100224.20;1814737;79;21496;-64
2021/04/19 14:15:45;;;;;;;4.78;4.37;;;;;;;13.32;51.52;100220.65;1809532;79;21602;-70
2021/04/19 14:18:14;;;;;;;4.80;4.40;;;;;;;13.35;51.86;100221.77;1734902;82;21033;-69
2021/04/19 14:20:46;;;;;;;5.42;4.75;;;;;;;13.38;51.67;100225.12;1734528;82;21025;-71
2021/04/19 14:23:15;;;;;;;5.35;4.85;;;;;;;13.39;51.70;100218.95;1733963;82;22069;-66
2021/04/19 14:25:43;;;;;;;5.35;4.83;;;;;;;13.36;51.83;100217.38;1745452;82;21643;-68
2021/04/19 14:28:12;;;;;;;7.60;5.10;;;;;;;13.30;52.47;100218.60;1765327;81;21512;-67
2021/04/19 14:30:40;;;;;;;5.47;4.87;;;;;;;13.23;52.84;100219.09;1765325;80;21594;-71
2021/04/19 14:33:09;;;;;;;6.72;5.17;;;;;;;13.13;52.73;100220.61;1765427;81;21473;-66
2021/04/19 14:35:37;;;;;;;6.70;5.80;;;;;;;13.05;52.84;100221.55;1765514;81;22185;-69
